createdAt,value
2022-11-08T00:00:57.186Z,9.26
2022-11-08T00:03:25.810Z,9.27
2022-11-08T00:06:14.670Z,9.27
2022-11-08T00:09:01.927Z,9.29
2022-11-08T00:11:49.589Z,9.30
2022-11-08T00:14:26.377Z,9.31
2022-11-08T00:16:54.325Z,9.31
2022-11-08T00:19:25.068Z,9.32
2022-11-08T00:21:53.042Z,9.32
2022-11-08T00:24:20.993Z,9.33
2022-11-08T00:26:49.388Z,9.32
2022-11-08T00:29:17.534Z,9.31
2022-11-08T00:31:45.544Z,9.30
2022-11-08T00:34:13.594Z,9.29
2022-11-08T00:36:41.780Z,9.27
2022-11-08T00:39:11.231Z,9.26
2022-11-08T00:41:42.249Z,9.26
2022-11-08T00:44:11.826Z,9.26
2022-11-08T00:46:41.523Z,9.25
2022-11-08T00:49:10.920Z,9.24
2022-11-08T00:51:40.210Z,9.23
2022-11-08T00:54:13.684Z,9.22
2022-11-08T00:56:42.205Z,9.21
2022-11-08T00:59:13.075Z,9.19
2022-11-08T01:01:44.076Z,9.19
2022-11-08T01:04:17.360Z,9.19
2022-11-08T01:06:53.157Z,9.18
2022-11-08T01:09:27.414Z,9.16
2022-11-08T01:12:11.983Z,9.15
2022-11-08T01:14:44.000Z,9.14
2022-11-08T01:17:14.167Z,9.13
2022-11-08T01:19:42.597Z,9.11
2022-11-08T01:22:11.087Z,9.10
2022-11-08T01:24:40.004Z,9.09
2022-11-08T01:27:08.090Z,9.09
2022-11-08T01:29:36.561Z,9.08
2022-11-08T01:32:05.045Z,9.07
2022-11-08T01:34:33.578Z,9.07
2022-11-08T01:37:01.593Z,9.07
2022-11-08T01:39:33.137Z,9.07
2022-11-08T01:42:02.500Z,9.07
2022-11-08T01:44:30.457Z,9.06
2022-11-08T01:46:58.649Z,9.05
2022-11-08T01:49:35.710Z,9.06
2022-11-08T01:52:10.266Z,9.05
2022-11-08T01:54:38.640Z,9.05
2022-11-08T01:57:14.289Z,9.05
2022-11-08T01:59:45.297Z,9.05
2022-11-08T02:02:14.719Z,9.04
2022-11-08T02:04:43.869Z,9.02
2022-11-08T02:07:13.792Z,9.00
2022-11-08T02:09:45.440Z,8.98
2022-11-08T02:12:15.189Z,8.95
2022-11-08T02:14:43.435Z,8.94
2022-11-08T02:17:11.659Z,8.91
2022-11-08T02:19:48.009Z,8.89
2022-11-08T02:23:17.065Z,8.87
2022-11-08T02:25:45.209Z,8.83
2022-11-08T02:28:13.489Z,8.80
2022-11-08T02:30:42.024Z,8.79
2022-11-08T02:33:22.318Z,8.78
2022-11-08T02:35:54.442Z,8.75
2022-11-08T02:38:25.329Z,8.74
2022-11-08T02:40:56.296Z,8.73
2022-11-08T02:43:25.622Z,8.72
2022-11-08T02:45:54.016Z,8.72
2022-11-08T02:48:21.998Z,8.72
2022-11-08T02:50:49.998Z,8.72
2022-11-08T02:53:21.058Z,8.72
2022-11-08T02:55:48.974Z,8.71
2022-11-08T02:58:17.566Z,8.71
2022-11-08T03:00:46.268Z,8.72
2022-11-08T03:03:14.857Z,8.71
2022-11-08T03:05:43.579Z,8.70
2022-11-08T03:08:11.469Z,8.70
2022-11-08T03:10:39.434Z,8.70
2022-11-08T03:13:07.516Z,8.69
2022-11-08T03:15:35.513Z,8.69
2022-11-08T03:18:03.731Z,8.68
2022-11-08T03:20:33.361Z,8.66
2022-11-08T03:23:04.501Z,8.65
2022-11-08T03:25:35.053Z,8.64
2022-11-08T03:28:08.568Z,8.62
2022-11-08T03:30:37.737Z,8.60
2022-11-08T03:33:05.718Z,8.57
2022-11-08T03:35:33.971Z,8.55
2022-11-08T03:38:01.933Z,8.52
2022-11-08T03:40:30.401Z,8.50
2022-11-08T03:42:58.764Z,8.48
2022-11-08T03:45:26.874Z,8.45
2022-11-08T03:47:54.861Z,8.43
2022-11-08T03:50:22.830Z,8.41
2022-11-08T03:52:53.104Z,8.39
2022-11-08T03:55:24.862Z,8.37
2022-11-08T03:57:53.765Z,8.37
2022-11-08T04:00:25.600Z,8.41
2022-11-08T04:03:05.961Z,8.43
2022-11-08T04:05:35.021Z,8.45
2022-11-08T04:08:06.280Z,8.46
2022-11-08T04:10:34.708Z,8.47
2022-11-08T04:13:21.323Z,8.47
2022-11-08T04:15:55.095Z,8.50
2022-11-08T04:18:41.914Z,8.51
2022-11-08T04:21:19.788Z,8.53
2022-11-08T04:23:52.578Z,8.54
2022-11-08T04:26:22.340Z,8.54
2022-11-08T04:28:51.164Z,8.55
2022-11-08T04:31:20.721Z,8.55
2022-11-08T04:33:48.741Z,8.55
2022-11-08T04:36:18.704Z,8.55
2022-11-08T04:38:51.646Z,8.55
2022-11-08T04:41:22.984Z,8.54
2022-11-08T04:43:55.424Z,8.52
2022-11-08T04:46:26.593Z,8.51
2022-11-08T04:48:56.877Z,8.51
2022-11-08T04:51:29.157Z,8.50
2022-11-08T04:54:01.275Z,8.48
2022-11-08T04:56:31.379Z,8.47
2022-11-08T04:59:00.940Z,8.45
2022-11-08T05:01:31.189Z,8.44
2022-11-08T05:04:00.009Z,8.41
2022-11-08T05:06:31.518Z,8.40
2022-11-08T05:09:00.453Z,8.38
2022-11-08T05:11:30.674Z,8.36
2022-11-08T05:13:59.176Z,8.33
2022-11-08T05:16:30.949Z,8.31
2022-11-08T05:18:59.300Z,8.29
2022-11-08T05:21:47.437Z,8.28
2022-11-08T05:24:17.661Z,8.25
2022-11-08T05:26:47.674Z,8.24
2022-11-08T05:29:18.109Z,8.23
2022-11-08T05:31:46.112Z,8.23
2022-11-08T05:34:14.143Z,8.23
2022-11-08T05:36:42.769Z,8.24
2022-11-08T05:39:10.708Z,8.24
2022-11-08T05:41:39.472Z,8.23
2022-11-08T05:44:09.893Z,8.24
2022-11-08T05:46:40.550Z,8.24
2022-11-08T05:49:08.620Z,8.25
2022-11-08T05:51:36.594Z,8.27
2022-11-08T05:54:07.076Z,8.29
2022-11-08T05:56:36.643Z,8.30
2022-11-08T05:59:07.462Z,8.33
2022-11-08T06:01:36.650Z,8.35
2022-11-08T06:04:07.376Z,8.37
2022-11-08T06:06:36.814Z,8.40
2022-11-08T06:09:06.171Z,8.43
2022-11-08T06:11:34.182Z,8.47
2022-11-08T06:14:02.145Z,8.50
2022-11-08T06:16:30.091Z,8.55
2022-11-08T06:19:00.435Z,8.60
2022-11-08T06:21:31.241Z,8.71
2022-11-08T06:24:02.314Z,9.00
2022-11-08T06:26:32.204Z,9.26
2022-11-08T06:29:02.221Z,9.34
2022-11-08T06:31:30.325Z,9.37
2022-11-08T06:33:58.391Z,9.39
2022-11-08T06:36:27.897Z,9.43
2022-11-08T06:38:56.769Z,9.48
2022-11-08T06:41:30.009Z,9.53
2022-11-08T06:43:58.570Z,9.60
2022-11-08T06:46:29.212Z,9.68
2022-11-08T06:48:58.618Z,9.76
2022-11-08T06:51:29.448Z,9.85
2022-11-08T06:53:57.457Z,9.93
2022-11-08T06:56:25.453Z,10.03
2022-11-08T06:58:54.438Z,10.13
2022-11-08T07:01:22.475Z,10.23
2022-11-08T07:03:51.209Z,10.30
2022-11-08T07:06:19.867Z,10.38
2022-11-08T07:08:50.489Z,10.47
2022-11-08T07:11:20.053Z,10.55
2022-11-08T07:13:48.629Z,10.62
2022-11-08T07:16:17.120Z,10.68
2022-11-08T07:18:48.114Z,10.74
2022-11-08T07:21:16.997Z,10.82
2022-11-08T07:23:45.642Z,10.89
2022-11-08T07:26:15.066Z,10.98
2022-11-08T07:28:44.695Z,11.06
2022-11-08T07:31:14.010Z,11.14
2022-11-08T07:33:42.084Z,11.26
2022-11-08T07:36:10.569Z,11.40
2022-11-08T07:38:39.126Z,11.54
2022-11-08T07:41:09.142Z,11.68
2022-11-08T07:43:37.264Z,11.84
2022-11-08T07:46:16.508Z,11.99
2022-11-08T07:48:44.588Z,12.15
2022-11-08T07:51:12.669Z,12.28
2022-11-08T07:53:43.274Z,12.40
2022-11-08T07:56:12.163Z,12.51
2022-11-08T07:58:40.413Z,12.59
2022-11-08T08:01:08.768Z,12.65
2022-11-08T08:03:39.144Z,12.72
2022-11-08T08:06:08.026Z,12.81
2022-11-08T08:08:38.676Z,12.91
2022-11-08T08:11:06.867Z,13.01
2022-11-08T08:13:35.502Z,13.11
2022-11-08T08:16:05.827Z,13.22
2022-11-08T08:18:37.658Z,13.34
2022-11-08T08:21:05.815Z,13.48
2022-11-08T08:23:34.046Z,13.60
2022-11-08T08:26:03.821Z,13.71
2022-11-08T08:28:33.389Z,13.83
2022-11-08T08:31:02.659Z,13.92
2022-11-08T08:33:50.411Z,14.06
2022-11-08T08:36:19.913Z,14.19
2022-11-08T08:38:48.314Z,14.28
2022-11-08T08:41:17.238Z,14.38
2022-11-08T08:43:50.520Z,14.46
2022-11-08T08:46:33.454Z,14.55
2022-11-08T08:49:01.610Z,14.62
2022-11-08T08:51:30.965Z,14.65
2022-11-08T08:53:59.075Z,14.67
2022-11-08T08:56:28.399Z,14.70
2022-11-08T09:01:45.517Z,14.80
2022-11-08T09:04:14.446Z,14.88
2022-11-08T09:06:42.621Z,14.94
2022-11-08T09:09:11.565Z,14.96
2022-11-08T09:11:41.169Z,14.99
2022-11-08T09:14:11.230Z,15.01
2022-11-08T09:16:43.077Z,15.03
2022-11-08T09:19:11.346Z,15.02
2022-11-08T09:21:39.423Z,15.04
2022-11-08T09:24:17.267Z,15.07
2022-11-08T09:26:54.369Z,15.11
2022-11-08T09:29:37.187Z,15.15
2022-11-08T09:32:06.045Z,15.17
2022-11-08T09:34:52.668Z,15.18
2022-11-08T09:37:25.750Z,15.18
2022-11-08T09:39:55.888Z,15.20
2022-11-08T09:46:44.826Z,15.30
2022-11-08T09:49:36.498Z,15.35
2022-11-08T09:52:07.179Z,15.36
2022-11-08T09:54:42.370Z,15.40
2022-11-08T09:57:42.866Z,15.47
2022-11-08T10:00:18.687Z,15.55
2022-11-08T10:02:50.280Z,15.62
2022-11-08T10:05:21.001Z,15.71
2022-11-08T10:08:08.101Z,15.78
2022-11-08T10:10:49.754Z,15.83
2022-11-08T10:13:44.177Z,15.87
2022-11-08T10:16:38.111Z,15.90
2022-11-08T10:19:43.832Z,15.94
2022-11-08T10:22:42.096Z,15.98
2022-11-08T10:25:48.106Z,16.00
2022-11-08T10:28:21.658Z,16.02
2022-11-08T10:30:52.641Z,16.04
2022-11-08T10:33:30.013Z,16.05
2022-11-08T10:36:25.381Z,16.07
2022-11-08T10:39:14.067Z,16.09
2022-11-08T10:41:49.175Z,16.13
2022-11-08T10:44:24.599Z,16.17
2022-11-08T10:46:56.341Z,16.19
2022-11-08T10:49:38.601Z,16.23
2022-11-08T10:52:12.730Z,16.29
2022-11-08T10:54:54.765Z,16.33
2022-11-08T10:57:34.552Z,16.34
2022-11-08T11:00:21.009Z,16.34
2022-11-08T11:02:56.115Z,16.38
2022-11-08T11:05:41.094Z,16.43
2022-11-08T11:08:12.390Z,16.48
2022-11-08T11:10:43.782Z,16.52
2022-11-08T11:13:18.067Z,16.52
2022-11-08T11:15:47.007Z,16.52
2022-11-08T11:18:49.712Z,16.55
2022-11-08T11:21:21.299Z,16.62
2022-11-08T11:23:56.742Z,16.69
2022-11-08T11:26:30.969Z,16.73
2022-11-08T11:33:29.691Z,16.78
2022-11-08T11:36:15.725Z,16.80
2022-11-08T11:38:55.876Z,16.85
2022-11-08T11:41:43.721Z,16.86
2022-11-08T11:44:29.227Z,16.82
2022-11-08T11:47:02.294Z,16.79
2022-11-08T11:49:31.979Z,16.81
2022-11-08T11:52:00.515Z,16.86
2022-11-08T11:54:33.010Z,16.90
2022-11-08T11:57:07.726Z,16.91
2022-11-08T12:00:15.167Z,16.92
2022-11-08T12:02:47.149Z,16.91
2022-11-08T12:05:55.461Z,16.91
2022-11-08T12:09:00.463Z,16.94
2022-11-08T12:11:59.475Z,16.90
2022-11-08T12:15:01.285Z,16.87
2022-11-08T12:17:50.588Z,16.87
2022-11-08T12:20:43.112Z,16.90
2022-11-08T12:23:41.487Z,16.93
2022-11-08T12:26:37.131Z,16.96
2022-11-08T12:29:19.019Z,16.99
2022-11-08T12:31:47.929Z,17.00
2022-11-08T12:34:34.737Z,16.97
2022-11-08T12:37:26.470Z,16.95
2022-11-08T12:40:14.431Z,16.97
2022-11-08T12:43:11.126Z,16.98
2022-11-08T12:46:13.190Z,17.00
2022-11-08T12:49:19.678Z,17.03
2022-11-08T12:52:10.507Z,17.05
2022-11-08T12:54:53.929Z,17.06
2022-11-08T12:57:28.406Z,17.05
2022-11-08T13:00:07.296Z,17.07
2022-11-08T13:02:40.810Z,17.07
2022-11-08T13:05:14.167Z,17.05
2022-11-08T13:08:13.305Z,17.02
2022-11-08T13:10:49.906Z,16.95
2022-11-08T13:13:36.911Z,16.92
2022-11-08T13:16:18.807Z,16.93
2022-11-08T13:18:52.771Z,16.92
2022-11-08T13:21:41.228Z,16.90
2022-11-08T13:24:43.375Z,16.84
2022-11-08T13:27:30.472Z,16.80
2022-11-08T13:30:04.286Z,16.76
2022-11-08T13:33:07.029Z,16.72
2022-11-08T13:35:43.128Z,16.64
2022-11-08T13:38:46.572Z,16.55
2022-11-08T13:45:31.037Z,16.34
2022-11-08T13:48:07.609Z,16.25
2022-11-08T13:50:50.751Z,16.18
2022-11-08T13:53:19.056Z,16.15
2022-11-08T13:55:47.014Z,16.11
2022-11-08T13:58:36.393Z,16.06
2022-11-08T14:01:34.713Z,15.98
2022-11-08T14:04:27.788Z,15.87
2022-11-08T14:07:25.957Z,15.74
2022-11-08T14:09:59.997Z,15.62
2022-11-08T14:12:49.937Z,15.52
2022-11-08T14:15:36.783Z,15.42
2022-11-08T14:18:26.734Z,15.34
2022-11-08T14:20:55.084Z,15.26
2022-11-08T14:23:39.477Z,15.19
2022-11-08T14:26:21.877Z,15.13
2022-11-08T14:28:51.757Z,15.06
2022-11-08T14:31:33.232Z,14.99
2022-11-08T14:34:02.333Z,14.90
2022-11-08T14:36:32.977Z,14.82
2022-11-08T14:39:18.233Z,14.76
2022-11-08T14:41:52.844Z,14.69
2022-11-08T14:44:23.286Z,14.61
2022-11-08T14:46:54.855Z,14.54
2022-11-08T14:49:22.932Z,14.47
2022-11-08T14:52:33.244Z,14.39
2022-11-08T14:55:10.293Z,14.29
2022-11-08T14:57:46.800Z,14.20
2022-11-08T15:00:19.372Z,14.11
2022-11-08T15:03:04.818Z,14.02
2022-11-08T15:06:13.548Z,13.93
2022-11-08T15:08:56.218Z,13.82
2022-11-08T15:11:37.471Z,13.74
2022-11-08T15:14:09.823Z,13.65
2022-11-08T15:16:44.913Z,13.54
2022-11-08T15:19:32.329Z,13.44
2022-11-08T15:22:04.657Z,13.35
2022-11-08T15:24:40.390Z,13.27
2022-11-08T15:27:16.980Z,13.18
2022-11-08T15:30:03.269Z,13.06
2022-11-08T15:32:43.619Z,12.95
2022-11-08T15:35:21.694Z,12.84
2022-11-08T15:37:59.382Z,12.74
2022-11-08T15:40:32.134Z,12.64
2022-11-08T15:43:01.502Z,12.56
2022-11-08T15:45:33.300Z,12.49
2022-11-08T15:48:09.124Z,12.41
2022-11-08T15:50:39.615Z,12.34
2022-11-08T15:53:09.783Z,12.27
2022-11-08T15:55:41.911Z,12.22
2022-11-08T15:58:34.344Z,12.16
2022-11-08T16:01:06.258Z,12.13
2022-11-08T16:03:36.494Z,12.09
2022-11-08T16:06:05.635Z,12.03
2022-11-08T16:08:36.353Z,11.97
2022-11-08T16:11:06.333Z,11.93
2022-11-08T16:13:38.098Z,11.91
2022-11-08T16:16:14.728Z,11.88
2022-11-08T16:18:46.126Z,11.87
2022-11-08T16:21:20.105Z,11.85
2022-11-08T16:23:48.197Z,11.83
2022-11-08T16:26:18.225Z,11.80
2022-11-08T16:28:46.907Z,11.77
2022-11-08T16:31:18.486Z,11.74
2022-11-08T16:33:48.798Z,11.72
2022-11-08T16:36:28.226Z,11.69
2022-11-08T16:38:59.565Z,11.65
2022-11-08T16:41:28.216Z,11.62
2022-11-08T16:43:56.677Z,11.58
2022-11-08T16:46:24.831Z,11.56
2022-11-08T16:48:58.295Z,11.55
2022-11-08T16:51:28.349Z,11.53
2022-11-08T16:53:57.989Z,11.52
2022-11-08T16:56:26.288Z,11.50
2022-11-08T16:58:54.296Z,11.48
2022-11-08T17:01:31.715Z,11.49
2022-11-08T17:04:00.375Z,11.50
2022-11-08T17:06:29.821Z,11.48
2022-11-08T17:08:58.175Z,11.45
2022-11-08T17:11:26.227Z,11.41
2022-11-08T17:13:55.706Z,11.38
2022-11-08T17:16:23.850Z,11.34
2022-11-08T17:18:53.640Z,11.31
2022-11-08T17:21:43.728Z,11.28
2022-11-08T17:24:13.670Z,11.23
2022-11-08T17:26:47.443Z,11.19
2022-11-08T17:29:17.980Z,11.14
2022-11-08T17:31:47.777Z,11.11
2022-11-08T17:34:16.576Z,11.06
2022-11-08T17:36:47.146Z,11.02
2022-11-08T17:39:18.244Z,10.98
2022-11-08T17:41:48.400Z,10.95
2022-11-08T17:44:17.145Z,10.92
2022-11-08T17:46:46.594Z,10.92
2022-11-08T17:49:15.984Z,10.92
2022-11-08T17:51:45.587Z,10.92
2022-11-08T17:54:13.618Z,10.92
2022-11-08T17:56:42.111Z,10.92
2022-11-08T17:59:11.983Z,10.94
2022-11-08T18:01:40.613Z,10.95
2022-11-08T18:04:10.506Z,10.96
2022-11-08T18:06:39.287Z,10.97
2022-11-08T18:09:10.257Z,10.97
2022-11-08T18:11:38.622Z,10.97
2022-11-08T18:14:07.626Z,10.97
2022-11-08T18:16:38.301Z,10.97
2022-11-08T18:19:07.645Z,10.96
2022-11-08T18:21:37.419Z,10.95
2022-11-08T18:24:05.969Z,10.96
2022-11-08T18:26:33.992Z,10.96
2022-11-08T18:29:03.165Z,10.98
2022-11-08T18:31:33.518Z,10.98
2022-11-08T18:34:02.367Z,10.97
2022-11-08T18:36:33.836Z,10.95
2022-11-08T18:39:05.241Z,10.94
2022-11-08T18:41:41.096Z,10.93
2022-11-08T18:44:13.697Z,10.91
2022-11-08T18:46:43.828Z,10.89
2022-11-08T18:49:12.229Z,10.88
2022-11-08T18:51:41.093Z,10.85
2022-11-08T18:54:10.552Z,10.83
2022-11-08T18:56:38.906Z,10.80
2022-11-08T18:59:10.341Z,10.78
2022-11-08T19:01:39.781Z,10.76
2022-11-08T19:04:09.962Z,10.72
2022-11-08T19:06:38.588Z,10.71
2022-11-08T19:09:06.671Z,10.69
2022-11-08T19:11:35.114Z,10.66
2022-11-08T19:14:04.149Z,10.63
2022-11-08T19:16:32.213Z,10.60
2022-11-08T19:19:00.909Z,10.58
2022-11-08T19:21:29.487Z,10.57
2022-11-08T19:24:01.418Z,10.55
2022-11-08T19:26:29.840Z,10.54
2022-11-08T19:28:58.702Z,10.53
2022-11-08T19:31:28.580Z,10.51
2022-11-08T19:33:58.934Z,10.48
2022-11-08T19:36:29.467Z,10.47
2022-11-08T19:39:02.001Z,10.42
2022-11-08T19:41:31.573Z,10.38
2022-11-08T19:44:01.537Z,10.34
2022-11-08T19:47:21.346Z,10.32
2022-11-08T19:49:29.621Z,10.27
2022-11-08T19:51:58.409Z,10.21
2022-11-08T19:54:28.500Z,10.17
2022-11-08T19:57:04.919Z,10.13
2022-11-08T19:59:38.674Z,10.10
2022-11-08T20:02:09.732Z,10.07
2022-11-08T20:04:42.887Z,10.05
2022-11-08T20:07:15.629Z,10.03
2022-11-08T20:09:47.164Z,10.01
2022-11-08T20:12:16.099Z,9.99
2022-11-08T20:14:44.061Z,9.99
2022-11-08T20:17:12.306Z,9.97
2022-11-08T20:19:42.605Z,9.96
2022-11-08T20:22:12.270Z,9.94
2022-11-08T20:24:40.289Z,9.93
2022-11-08T20:27:08.407Z,9.92
2022-11-08T20:29:38.315Z,9.91
2022-11-08T20:32:08.157Z,9.91
2022-11-08T20:34:38.573Z,9.91
2022-11-08T20:37:07.648Z,9.91
2022-11-08T20:39:36.486Z,9.92
2022-11-08T20:42:06.490Z,9.91
2022-11-08T20:44:34.635Z,9.91
2022-11-08T20:47:06.605Z,9.91
2022-11-08T20:49:37.887Z,9.91
2022-11-08T20:52:08.711Z,9.90
2022-11-08T20:54:44.065Z,9.90
2022-11-08T20:57:12.512Z,9.88
2022-11-08T20:59:41.084Z,9.87
2022-11-08T21:02:11.896Z,9.85
2022-11-08T21:04:40.793Z,9.83
2022-11-08T21:10:20.069Z,9.81
2022-11-08T21:12:48.568Z,9.80
2022-11-08T21:15:17.363Z,9.79
2022-11-08T21:17:45.520Z,9.79
2022-11-08T21:20:14.795Z,9.80
2022-11-08T21:22:43.564Z,9.79
2022-11-08T21:25:12.760Z,9.79
2022-11-08T21:27:41.454Z,9.78
2022-11-08T21:30:10.370Z,9.79
2022-11-08T21:32:38.987Z,9.80
2022-11-08T21:35:17.058Z,9.81
2022-11-08T21:37:45.494Z,9.82
2022-11-08T21:40:14.331Z,9.82
2022-11-08T21:42:48.401Z,9.84
2022-11-08T21:45:16.792Z,9.86
2022-11-08T21:47:50.409Z,9.88
2022-11-08T21:50:19.037Z,9.89
2022-11-08T21:52:48.633Z,9.89
2022-11-08T21:55:17.696Z,9.90
2022-11-08T21:57:46.797Z,9.91
2022-11-08T22:00:18.063Z,9.92
2022-11-08T22:02:46.103Z,9.93
2022-11-08T22:05:14.744Z,9.94
2022-11-08T22:07:43.262Z,9.94
2022-11-08T22:10:12.478Z,9.94
2022-11-08T22:12:41.465Z,9.94
2022-11-08T22:15:10.499Z,9.95
2022-11-08T22:17:45.987Z,9.96
2022-11-08T22:20:26.842Z,9.98
2022-11-08T22:22:54.955Z,9.97
2022-11-08T22:25:22.930Z,9.98
2022-11-08T22:27:51.936Z,9.98
2022-11-08T22:30:20.068Z,10.00
2022-11-08T22:32:53.185Z,10.01
2022-11-08T22:35:22.002Z,10.03
2022-11-08T22:37:52.389Z,10.03
2022-11-08T22:40:20.492Z,10.03
2022-11-08T22:42:49.425Z,10.04
2022-11-08T22:45:19.065Z,10.04
2022-11-08T22:47:48.308Z,10.06
2022-11-08T22:50:19.291Z,10.06
2022-11-08T22:52:49.873Z,10.08
2022-11-08T22:55:18.210Z,10.10
2022-11-08T22:57:47.556Z,10.11
2022-11-08T23:00:17.125Z,10.12
2022-11-08T23:02:46.474Z,10.13
2022-11-08T23:05:15.405Z,10.13
2022-11-08T23:07:43.722Z,10.13
2022-11-08T23:10:12.363Z,10.11
2022-11-08T23:12:59.820Z,10.11
2022-11-08T23:15:47.206Z,10.10
2022-11-08T23:18:16.654Z,10.09
2022-11-08T23:21:03.572Z,10.08
2022-11-08T23:23:50.645Z,10.08
2022-11-08T23:26:38.671Z,10.07
2022-11-08T23:29:29.223Z,10.08
2022-11-08T23:31:58.545Z,10.07
2022-11-08T23:34:26.673Z,10.07
2022-11-08T23:36:56.708Z,10.06
2022-11-08T23:39:27.421Z,10.06
2022-11-08T23:42:14.172Z,10.06
2022-11-08T23:44:43.170Z,10.06
2022-11-08T23:47:11.597Z,10.05
2022-11-08T23:49:39.608Z,10.06
2022-11-08T23:52:08.692Z,10.05
2022-11-08T23:54:37.693Z,10.05
2022-11-08T23:57:07.419Z,10.05
2022-11-08T23:59:36.684Z,10.06
